CheckWX is a tool to help pilots better visualize weather data.  It is not intended as a substitute for an official pre-flight weather briefing.

15:20:44 UTC

KCBF METAR
Council Bluffs Municipal Airport
Council Bluffs, Iowa, USA
Current

6 mins ago

KCBF 261515Z AUTO 12007KT 10SM CLR 19/17 A3008 RMK AO2
Observed
May-26 @ 15:15 UTC
Wind
  • 120° at 7 KTS
Visibility
10 SM
Flight Rules
VFR
Cloud Levels
  • Clear skies
Temperature
19°C / 66°F
Dewpoint
17°C / 63°F
Humidity
88%
Altimeter
30.08" Hg
Pressure
1018.62 hPa
Previous

26 mins ago

KCBF 261455Z AUTO 10009KT 10SM CLR 19/17 A3007 RMK AO2
Observed
May-26 @ 14:55 UTC
Wind
  • 100° at 9 KTS
Visibility
10 SM
Flight Rules
VFR
Cloud Levels
  • Clear skies
Temperature
19°C / 66°F
Dewpoint
17°C / 63°F
Humidity
88%
Altimeter
30.07" Hg
Pressure
1018.32 hPa
Previous

46 mins ago

KCBF 261435Z AUTO 08008KT 10SM CLR 18/17 A3007 RMK AO2
Observed
May-26 @ 14:35 UTC
Wind
  • 080° at 8 KTS
Visibility
10 SM
Flight Rules
VFR
Cloud Levels
  • Clear skies
Temperature
18°C / 64°F
Dewpoint
17°C / 63°F
Humidity
94%
Altimeter
30.07" Hg
Pressure
1018.32 hPa